createdAt,value
2018-08-07T00:00:58.257Z,25.01
2018-08-07T00:01:58.842Z,24.98
2018-08-07T00:02:59.428Z,24.91
2018-08-07T00:04:00.013Z,24.91
2018-08-07T00:05:00.602Z,24.95
2018-08-07T00:06:01.200Z,24.96
2018-08-07T00:07:01.827Z,24.96
2018-08-07T00:08:02.462Z,24.99
2018-08-07T00:09:03.043Z,24.93
2018-08-07T00:10:03.633Z,24.91
2018-08-07T00:11:04.369Z,24.99
2018-08-07T00:12:04.959Z,24.89
2018-08-07T00:13:05.546Z,24.89
2018-08-07T00:14:06.126Z,24.96
2018-08-07T00:15:06.717Z,24.98
2018-08-07T00:16:07.302Z,24.89
2018-08-07T00:17:07.890Z,24.89
2018-08-07T00:18:08.479Z,24.96
2018-08-07T00:19:09.157Z,24.89
2018-08-07T00:20:09.746Z,24.86
2018-08-07T00:21:10.335Z,24.99
2018-08-07T00:22:10.913Z,24.89
2018-08-07T00:23:11.503Z,24.91
2018-08-07T00:24:12.089Z,24.89
2018-08-07T00:25:12.689Z,24.91
2018-08-07T00:26:13.264Z,24.88
2018-08-07T00:27:13.898Z,24.86
2018-08-07T00:28:14.535Z,24.88
2018-08-07T00:29:15.118Z,24.88
2018-08-07T00:30:15.703Z,24.88
2018-08-07T00:31:16.291Z,24.86
2018-08-07T00:32:16.869Z,24.91
2018-08-07T00:33:17.456Z,24.86
2018-08-07T00:34:18.038Z,24.91
2018-08-07T00:35:18.625Z,24.91
2018-08-07T00:36:19.253Z,24.91
2018-08-07T00:37:19.837Z,24.86
2018-08-07T00:38:20.427Z,24.85
2018-08-07T00:39:21.009Z,24.91
2018-08-07T00:40:21.593Z,24.86
2018-08-07T00:41:22.183Z,24.86
2018-08-07T00:42:22.769Z,24.88
2018-08-07T00:43:23.353Z,24.81
2018-08-07T00:44:23.944Z,24.84
2018-08-07T00:45:24.730Z,24.80
2018-08-07T00:46:25.318Z,24.88
2018-08-07T00:47:25.951Z,24.86
2018-08-07T00:48:26.538Z,24.81
2018-08-07T00:49:27.124Z,24.81
2018-08-07T00:50:27.705Z,24.81
2018-08-07T00:51:28.295Z,24.88
2018-08-07T00:52:28.880Z,24.89
2018-08-07T00:53:29.519Z,24.78
2018-08-07T00:54:30.104Z,24.85
2018-08-07T00:55:30.692Z,24.85
2018-08-07T00:56:31.279Z,24.86
2018-08-07T00:57:31.858Z,24.88
2018-08-07T00:58:32.446Z,24.86
2018-08-07T00:59:33.031Z,24.85
2018-08-07T01:00:33.628Z,24.89
2018-08-07T01:01:34.208Z,24.84
2018-08-07T01:02:34.843Z,24.86
2018-08-07T01:03:35.424Z,24.80
2018-08-07T01:04:36.009Z,24.81
2018-08-07T01:05:36.593Z,24.77
2018-08-07T01:06:37.178Z,24.77
2018-08-07T01:07:37.817Z,24.78
2018-08-07T01:08:38.399Z,24.78
2018-08-07T01:09:39.041Z,24.76
2018-08-07T01:10:39.676Z,24.81
2018-08-07T01:11:40.262Z,24.81
2018-08-07T01:12:40.848Z,24.78
2018-08-07T01:13:41.428Z,24.78
2018-08-07T01:14:42.016Z,24.78
2018-08-07T01:15:42.601Z,24.77
2018-08-07T01:16:43.186Z,24.76
2018-08-07T01:17:43.769Z,24.78
2018-08-07T01:18:44.394Z,24.76
2018-08-07T01:19:44.985Z,24.66
2018-08-07T01:20:45.572Z,24.77
2018-08-07T01:21:46.158Z,24.78
2018-08-07T01:22:46.746Z,24.68
2018-08-07T01:23:47.335Z,24.73
2018-08-07T01:24:47.921Z,24.69
2018-08-07T01:25:48.502Z,24.69
2018-08-07T01:26:49.136Z,24.76
2018-08-07T01:27:49.679Z,24.65
2018-08-07T01:28:50.467Z,24.61
2018-08-07T01:29:51.098Z,24.61
2018-08-07T01:30:51.735Z,24.61
2018-08-07T01:31:52.324Z,24.57
2018-08-07T01:32:52.903Z,24.60
2018-08-07T01:33:53.485Z,24.55
2018-08-07T01:34:54.074Z,24.63
2018-08-07T01:35:54.659Z,24.73
2018-08-07T01:36:55.251Z,24.57
2018-08-07T01:37:55.833Z,24.66
2018-08-07T01:38:56.418Z,24.65
2018-08-07T01:39:57.051Z,24.63
2018-08-07T01:40:57.637Z,24.74
2018-08-07T01:41:58.221Z,24.65
2018-08-07T01:42:58.855Z,24.57
2018-08-07T01:43:59.444Z,24.57
2018-08-07T01:45:00.027Z,24.63
2018-08-07T01:46:00.612Z,24.68
2018-08-07T01:47:01.250Z,24.60
2018-08-07T01:48:01.836Z,24.60
2018-08-07T01:49:02.471Z,24.60
2018-08-07T01:50:03.059Z,24.68
2018-08-07T01:51:03.690Z,24.57
2018-08-07T01:52:04.272Z,24.57
2018-08-07T01:53:04.906Z,24.60
2018-08-07T01:54:05.496Z,24.55
2018-08-07T01:55:06.083Z,24.63
2018-08-07T01:56:06.670Z,24.53
2018-08-07T01:57:07.254Z,24.57
2018-08-07T01:58:07.840Z,24.55
2018-08-07T01:59:08.421Z,24.55
2018-08-07T02:00:09.010Z,24.58
2018-08-07T02:01:09.596Z,24.58
2018-08-07T02:02:10.178Z,24.61
2018-08-07T02:03:10.810Z,24.73
2018-08-07T02:04:11.399Z,24.57
2018-08-07T02:05:11.982Z,24.65
2018-08-07T02:06:12.618Z,24.63
2018-08-07T02:07:13.200Z,24.61
2018-08-07T02:08:13.791Z,24.57
2018-08-07T02:09:14.367Z,24.61
2018-08-07T02:10:14.951Z,24.61
2018-08-07T02:11:15.590Z,24.61
2018-08-07T02:12:16.177Z,24.61
2018-08-07T02:13:16.758Z,24.57
2018-08-07T02:14:17.338Z,24.58
2018-08-07T02:15:17.928Z,24.63
2018-08-07T02:16:18.511Z,24.60
2018-08-07T02:17:19.093Z,24.58
2018-08-07T02:18:19.725Z,24.55
2018-08-07T02:19:20.311Z,24.65
2018-08-07T02:20:20.889Z,24.57
2018-08-07T02:21:21.475Z,24.54
2018-08-07T02:22:22.065Z,24.61
2018-08-07T02:23:22.708Z,24.58
2018-08-07T02:24:23.410Z,24.57
2018-08-07T02:25:23.975Z,24.60
2018-08-07T02:26:24.608Z,24.60
2018-08-07T02:27:25.193Z,24.61
2018-08-07T02:28:25.781Z,24.51
2018-08-07T02:29:26.364Z,24.55
2018-08-07T02:30:26.951Z,24.55
2018-08-07T02:31:27.530Z,24.60
2018-08-07T02:32:28.168Z,24.57
2018-08-07T02:33:28.754Z,24.61
2018-08-07T02:34:29.341Z,24.60
2018-08-07T02:35:29.929Z,24.63
2018-08-07T02:36:30.512Z,24.68
2018-08-07T02:37:31.099Z,24.61
2018-08-07T02:38:31.690Z,24.63
2018-08-07T02:39:32.272Z,24.61
2018-08-07T02:40:32.858Z,24.58
2018-08-07T02:41:33.491Z,24.57
2018-08-07T02:42:34.076Z,24.57
2018-08-07T02:43:34.666Z,24.57
2018-08-07T02:44:35.304Z,24.58
2018-08-07T02:45:35.891Z,24.58
2018-08-07T02:46:36.488Z,24.53
2018-08-07T02:47:37.075Z,24.63
2018-08-07T02:48:37.665Z,24.60
2018-08-07T02:49:38.293Z,24.60
2018-08-07T02:50:38.880Z,24.55
2018-08-07T02:51:39.472Z,24.55
2018-08-07T02:52:40.057Z,24.61
2018-08-07T02:53:40.687Z,24.54
2018-08-07T02:54:41.278Z,24.53
2018-08-07T02:55:41.905Z,24.50
2018-08-07T02:56:42.544Z,24.50
2018-08-07T02:57:43.129Z,24.47
2018-08-07T02:58:43.719Z,24.50
2018-08-07T02:59:44.306Z,24.53
2018-08-07T03:00:44.892Z,24.51
2018-08-07T03:01:45.481Z,24.47
2018-08-07T03:02:46.067Z,24.48
2018-08-07T03:03:46.649Z,24.50
2018-08-07T03:04:47.290Z,24.43
2018-08-07T03:05:47.879Z,24.51
2018-08-07T03:06:48.513Z,24.50
2018-08-07T03:07:49.101Z,24.48
2018-08-07T03:08:49.686Z,24.48
2018-08-07T03:09:50.267Z,24.48
2018-08-07T03:10:50.854Z,24.48
2018-08-07T03:11:51.442Z,24.45
2018-08-07T03:12:52.092Z,24.51
2018-08-07T03:13:52.665Z,24.50
2018-08-07T03:14:53.249Z,24.38
2018-08-07T03:15:53.837Z,24.42
2018-08-07T03:16:54.423Z,24.54
2018-08-07T03:17:55.009Z,24.48
2018-08-07T03:18:55.593Z,24.54
2018-08-07T03:19:56.178Z,24.48
2018-08-07T03:21:41.277Z,24.45
2018-08-07T03:22:41.916Z,24.50
2018-08-07T03:23:42.501Z,24.53
2018-08-07T03:24:43.096Z,24.54
2018-08-07T03:25:43.776Z,24.48
2018-08-07T03:26:44.362Z,24.51
2018-08-07T03:27:44.948Z,24.48
2018-08-07T03:28:45.581Z,24.47
2018-08-07T03:29:46.217Z,24.43
2018-08-07T03:31:47.390Z,24.55
2018-08-07T03:32:47.974Z,24.42
2018-08-07T03:33:48.607Z,24.51
2018-08-07T03:34:49.192Z,24.39
2018-08-07T03:35:49.780Z,24.51
2018-08-07T03:36:50.362Z,24.51
2018-08-07T03:37:50.950Z,24.42
2018-08-07T03:38:51.536Z,24.53
2018-08-07T03:39:52.118Z,24.48
2018-08-07T03:40:52.753Z,24.54
2018-08-07T03:41:53.389Z,24.50
2018-08-07T03:42:53.972Z,24.55
2018-08-07T03:43:54.557Z,24.42
2018-08-07T03:44:55.144Z,24.51
2018-08-07T03:45:55.744Z,24.53
2018-08-07T03:46:56.310Z,24.54
2018-08-07T03:47:56.947Z,24.51
2018-08-07T03:48:57.527Z,24.50
2018-08-07T03:49:58.116Z,24.51
2018-08-07T03:50:58.699Z,24.53
2018-08-07T03:51:59.281Z,24.48
2018-08-07T03:52:59.901Z,24.43
2018-08-07T03:54:00.461Z,24.50
2018-08-07T03:55:01.045Z,24.50
2018-08-07T03:56:01.632Z,24.51
2018-08-07T03:57:02.267Z,24.48
2018-08-07T03:58:02.856Z,24.47
2018-08-07T03:59:03.449Z,24.36
2018-08-07T04:00:04.067Z,24.50
2018-08-07T04:01:04.656Z,24.51
2018-08-07T04:02:05.243Z,24.51
2018-08-07T04:03:05.881Z,24.39
2018-08-07T04:04:06.459Z,24.38
2018-08-07T04:05:07.102Z,24.43
2018-08-07T04:06:07.689Z,24.38
2018-08-07T04:07:08.315Z,24.38
2018-08-07T04:08:08.907Z,24.38
2018-08-07T04:09:09.493Z,24.42
2018-08-07T04:10:10.077Z,24.42
2018-08-07T04:11:10.665Z,24.39
2018-08-07T04:12:11.296Z,24.45
2018-08-07T04:13:11.891Z,24.42
2018-08-07T04:14:12.521Z,24.42
2018-08-07T04:15:13.105Z,24.45
2018-08-07T04:16:13.694Z,24.40
2018-08-07T04:17:14.332Z,24.48
2018-08-07T04:18:14.919Z,24.38
2018-08-07T04:19:15.504Z,24.45
2018-08-07T04:20:16.087Z,24.38
2018-08-07T04:21:16.728Z,24.36
2018-08-07T04:22:17.315Z,24.36
2018-08-07T04:23:17.905Z,24.42
2018-08-07T04:24:18.580Z,24.40
2018-08-07T04:25:19.169Z,24.47
2018-08-07T04:26:19.753Z,24.39
2018-08-07T04:27:20.333Z,24.42
2018-08-07T04:28:20.922Z,24.42
2018-08-07T04:29:21.510Z,24.45
2018-08-07T04:30:22.097Z,24.48
2018-08-07T04:31:22.683Z,24.43
2018-08-07T04:32:23.261Z,24.53
2018-08-07T04:33:23.903Z,24.38
2018-08-07T04:34:24.543Z,24.42
2018-08-07T04:35:25.124Z,24.40
2018-08-07T04:36:25.710Z,24.38
2018-08-07T04:37:26.296Z,24.42
2018-08-07T04:38:26.878Z,24.40
2018-08-07T04:39:27.511Z,24.42
2018-08-07T04:40:28.101Z,24.38
2018-08-07T04:41:28.737Z,24.40
2018-08-07T04:42:29.320Z,24.38
2018-08-07T04:43:29.907Z,24.38
2018-08-07T04:44:30.496Z,24.38
2018-08-07T04:45:31.082Z,24.38
2018-08-07T04:46:31.667Z,24.39
2018-08-07T04:47:32.255Z,24.40
2018-08-07T04:48:32.838Z,24.39
2018-08-07T04:49:33.424Z,24.39
2018-08-07T04:50:34.012Z,24.39
2018-08-07T04:51:34.598Z,24.40
2018-08-07T04:52:35.233Z,24.35
2018-08-07T04:53:35.825Z,24.35
2018-08-07T04:54:36.405Z,24.43
2018-08-07T04:55:36.989Z,24.35
2018-08-07T04:56:37.579Z,24.36
2018-08-07T04:57:38.214Z,24.40
2018-08-07T04:58:38.797Z,24.38
2018-08-07T04:59:39.435Z,24.35
2018-08-07T05:00:40.119Z,24.36
2018-08-07T05:01:40.709Z,24.35
2018-08-07T05:02:41.292Z,24.42
2018-08-07T05:03:41.877Z,24.39
2018-08-07T05:04:42.458Z,24.40
2018-08-07T05:05:43.049Z,24.29
2018-08-07T05:06:43.640Z,24.29
2018-08-07T05:07:44.224Z,24.40
2018-08-07T05:08:44.805Z,24.33
2018-08-07T05:09:45.391Z,24.28
2018-08-07T05:10:45.998Z,24.36
2018-08-07T05:11:46.602Z,24.38
2018-08-07T05:12:47.184Z,24.39
2018-08-07T05:13:47.816Z,24.30
2018-08-07T05:14:48.399Z,24.36
2018-08-07T05:15:49.030Z,24.30
2018-08-07T05:16:49.619Z,24.24
2018-08-07T05:17:50.202Z,24.30
2018-08-07T05:18:50.786Z,24.23
2018-08-07T05:19:51.427Z,24.21
2018-08-07T05:20:52.007Z,24.26
2018-08-07T05:21:52.598Z,24.26
2018-08-07T05:22:53.196Z,24.23
2018-08-07T05:23:53.770Z,24.29
2018-08-07T05:24:54.358Z,24.23
2018-08-07T05:25:54.944Z,24.21
2018-08-07T05:26:55.530Z,24.21
2018-08-07T05:27:56.112Z,24.20
2018-08-07T05:28:56.706Z,24.18
2018-08-07T05:29:57.332Z,24.24
2018-08-07T05:30:58.021Z,24.23
2018-08-07T05:31:58.657Z,24.21
2018-08-07T05:32:59.241Z,24.28
2018-08-07T05:33:59.829Z,24.26
2018-08-07T05:35:00.418Z,24.21
2018-08-07T05:36:01.079Z,24.29
2018-08-07T05:37:01.585Z,24.32
2018-08-07T05:38:02.175Z,24.29
2018-08-07T05:39:02.811Z,24.28
2018-08-07T05:40:03.446Z,24.26
2018-08-07T05:41:04.037Z,24.23
2018-08-07T05:42:04.619Z,24.26
2018-08-07T05:43:05.206Z,24.26
2018-08-07T05:44:05.787Z,24.32
2018-08-07T05:45:06.372Z,24.23
2018-08-07T05:46:06.961Z,24.29
2018-08-07T05:47:07.548Z,24.30
2018-08-07T05:48:08.186Z,24.26
2018-08-07T05:49:08.815Z,24.33
2018-08-07T05:50:09.417Z,24.29
2018-08-07T05:51:10.493Z,24.26
2018-08-07T05:52:10.575Z,24.29
2018-08-07T05:53:11.154Z,24.29
2018-08-07T05:54:11.742Z,24.24
2018-08-07T05:55:12.404Z,24.28
2018-08-07T05:56:12.913Z,24.24
2018-08-07T05:57:13.501Z,24.24
2018-08-07T05:58:14.135Z,24.29
2018-08-07T05:59:14.723Z,24.30
2018-08-07T06:00:15.301Z,24.36
2018-08-07T06:01:15.899Z,24.30
2018-08-07T06:02:16.476Z,24.26
2018-08-07T06:03:17.059Z,24.28
2018-08-07T06:04:17.647Z,24.29
2018-08-07T06:05:18.229Z,24.23
2018-08-07T06:06:18.819Z,24.33
2018-08-07T06:07:19.496Z,24.29
2018-08-07T06:08:20.083Z,24.33
2018-08-07T06:09:20.671Z,24.28
2018-08-07T06:10:21.258Z,24.26
2018-08-07T06:11:21.841Z,24.24
2018-08-07T06:12:22.430Z,24.28
2018-08-07T06:13:23.017Z,24.20
2018-08-07T06:14:23.654Z,24.21
2018-08-07T06:15:24.242Z,24.21
2018-08-07T06:16:24.822Z,24.21
2018-08-07T06:17:25.408Z,24.23
2018-08-07T06:18:26.045Z,24.24
2018-08-07T06:19:26.638Z,24.16
2018-08-07T06:20:27.216Z,24.21
2018-08-07T06:21:27.801Z,24.21
2018-08-07T06:22:28.391Z,24.26
2018-08-07T06:23:28.976Z,24.21
2018-08-07T06:24:29.560Z,24.23
2018-08-07T06:25:30.235Z,24.23
2018-08-07T06:26:30.784Z,24.21
2018-08-07T06:27:31.371Z,24.20
2018-08-07T06:28:31.973Z,24.14
2018-08-07T06:29:32.550Z,24.16
2018-08-07T06:30:33.175Z,24.16
2018-08-07T06:31:33.816Z,24.21
2018-08-07T06:32:34.351Z,24.17
2018-08-07T06:33:34.988Z,24.06
2018-08-07T06:34:35.570Z,24.13
2018-08-07T06:35:36.160Z,24.21
2018-08-07T06:36:36.787Z,24.17
2018-08-07T06:37:37.416Z,24.14
2018-08-07T06:38:38.014Z,24.20
2018-08-07T06:39:38.601Z,24.14
2018-08-07T06:40:39.178Z,24.11
2018-08-07T06:41:39.764Z,24.17
2018-08-07T06:42:40.345Z,24.17
2018-08-07T06:43:40.931Z,24.11
2018-08-07T06:44:41.512Z,24.08
2018-08-07T06:45:42.101Z,24.08
2018-08-07T06:46:42.682Z,24.14
2018-08-07T06:47:43.319Z,24.11
2018-08-07T06:48:43.906Z,24.08
2018-08-07T06:49:44.491Z,24.10
2018-08-07T06:50:45.076Z,24.08
2018-08-07T06:51:45.666Z,24.18
2018-08-07T06:52:46.252Z,24.17
2018-08-07T06:53:46.877Z,24.18
2018-08-07T06:54:47.466Z,24.16
2018-08-07T06:55:48.098Z,24.18
2018-08-07T06:56:48.692Z,24.17
2018-08-07T06:57:49.323Z,24.10
2018-08-07T06:58:49.904Z,24.10
2018-08-07T06:59:50.498Z,24.13
2018-08-07T07:00:51.076Z,24.08
2018-08-07T07:01:51.659Z,24.08
2018-08-07T07:02:52.249Z,24.10
2018-08-07T07:03:52.838Z,24.03
2018-08-07T07:04:53.471Z,24.11
2018-08-07T07:05:54.058Z,24.10
2018-08-07T07:06:54.644Z,24.05
2018-08-07T07:07:55.222Z,24.05
2018-08-07T07:08:55.813Z,24.03
2018-08-07T07:09:56.444Z,24.05
2018-08-07T07:10:57.032Z,24.06
2018-08-07T07:11:57.660Z,24.08
2018-08-07T07:12:58.299Z,24.11
2018-08-07T07:13:58.882Z,24.14
2018-08-07T07:14:59.512Z,24.10
2018-08-07T07:16:00.055Z,24.06
2018-08-07T07:17:00.637Z,24.06
2018-08-07T07:18:01.222Z,24.10
2018-08-07T07:19:01.800Z,24.08
2018-08-07T07:20:02.386Z,24.08
2018-08-07T07:21:02.974Z,24.08
2018-08-07T07:22:03.561Z,24.10
2018-08-07T07:23:04.138Z,24.03
2018-08-07T07:24:04.771Z,24.08
2018-08-07T07:25:05.413Z,24.05
2018-08-07T07:26:05.990Z,24.10
2018-08-07T07:27:06.579Z,24.11
2018-08-07T07:28:07.168Z,24.05
2018-08-07T07:29:07.750Z,24.11
2018-08-07T07:30:08.384Z,24.10
2018-08-07T07:31:09.014Z,24.05
2018-08-07T07:32:09.605Z,24.10
2018-08-07T07:33:10.234Z,24.11
2018-08-07T07:34:10.974Z,24.06
2018-08-07T07:35:11.493Z,24.08
2018-08-07T07:36:12.079Z,24.06
2018-08-07T07:37:12.661Z,24.08
2018-08-07T07:38:13.240Z,24.03
2018-08-07T07:39:13.831Z,24.06
2018-08-07T07:40:14.414Z,24.08
2018-08-07T07:41:14.996Z,24.03
2018-08-07T07:42:15.589Z,24.08
2018-08-07T07:43:16.223Z,24.05
2018-08-07T07:44:16.804Z,24.11
2018-08-07T07:45:17.401Z,24.06
2018-08-07T07:46:18.024Z,24.10
2018-08-07T07:47:18.659Z,24.02
2018-08-07T07:48:19.239Z,24.06
2018-08-07T07:49:19.878Z,24.01
2018-08-07T07:50:20.512Z,24.06
2018-08-07T07:51:21.100Z,24.05
2018-08-07T07:52:21.680Z,24.06
2018-08-07T07:53:22.272Z,24.06
2018-08-07T07:54:22.855Z,24.10
2018-08-07T07:55:23.437Z,24.13
2018-08-07T07:56:24.023Z,24.05
2018-08-07T07:57:24.607Z,24.05
2018-08-07T07:58:25.193Z,24.06
2018-08-07T07:59:25.774Z,24.05
2018-08-07T08:00:26.409Z,24.08
2018-08-07T08:01:26.991Z,24.06
2018-08-07T08:02:27.580Z,24.06
2018-08-07T08:03:28.217Z,24.06
2018-08-07T08:04:28.804Z,24.06
2018-08-07T08:05:29.453Z,24.08
2018-08-07T08:06:30.066Z,24.06
2018-08-07T08:07:30.656Z,24.03
2018-08-07T08:08:31.292Z,24.06
2018-08-07T08:09:31.878Z,24.06
2018-08-07T08:10:32.458Z,24.05
2018-08-07T08:11:33.049Z,24.05
2018-08-07T08:12:33.632Z,24.11
2018-08-07T08:13:34.217Z,24.06
2018-08-07T08:14:34.805Z,24.08
2018-08-07T08:15:35.394Z,24.10
2018-08-07T08:16:36.040Z,24.08
2018-08-07T08:17:36.572Z,24.08
2018-08-07T08:18:37.156Z,24.08
2018-08-07T08:19:37.740Z,24.17
2018-08-07T08:20:38.378Z,24.13
2018-08-07T08:21:38.961Z,24.20
2018-08-07T08:22:39.549Z,24.14
2018-08-07T08:23:40.185Z,24.08
2018-08-07T08:24:40.859Z,24.11
2018-08-07T08:25:41.488Z,24.10
2018-08-07T08:26:42.078Z,24.13
2018-08-07T08:27:42.667Z,24.10
2018-08-07T08:28:43.255Z,24.03
2018-08-07T08:29:43.921Z,24.01
2018-08-07T08:30:44.418Z,24.06
2018-08-07T08:31:45.002Z,24.05
2018-08-07T08:32:45.587Z,24.08
2018-08-07T08:33:46.212Z,24.11
2018-08-07T08:34:46.802Z,24.05
2018-08-07T08:35:47.446Z,24.08
2018-08-07T08:36:48.014Z,24.10
2018-08-07T08:37:48.597Z,24.14
2018-08-07T08:38:49.182Z,24.14
2018-08-07T08:39:49.815Z,24.06
2018-08-07T08:40:50.476Z,24.20
2018-08-07T08:41:51.083Z,24.20
2018-08-07T08:42:51.669Z,24.08
2018-08-07T08:43:52.305Z,24.18
2018-08-07T08:44:52.891Z,24.17
2018-08-07T08:45:53.516Z,24.18
2018-08-07T08:46:54.104Z,24.13
2018-08-07T08:47:54.725Z,24.23
2018-08-07T08:48:55.272Z,24.17
2018-08-07T08:49:55.864Z,24.18
2018-08-07T08:50:56.446Z,24.20
2018-08-07T08:51:57.033Z,24.20
2018-08-07T08:52:57.626Z,24.13
2018-08-07T08:53:58.283Z,24.11
2018-08-07T08:54:58.884Z,24.18
2018-08-07T08:55:59.519Z,24.21
2018-08-07T08:57:00.104Z,24.24
2018-08-07T08:58:00.692Z,24.17
2018-08-07T08:59:01.375Z,24.18
2018-08-07T09:00:01.960Z,24.17
2018-08-07T09:01:02.546Z,24.18
2018-08-07T09:02:03.126Z,24.23
2018-08-07T09:03:03.715Z,24.17
2018-08-07T09:04:04.297Z,24.14
2018-08-07T09:05:04.886Z,24.11
2018-08-07T09:06:05.467Z,24.16
2018-08-07T09:07:06.051Z,24.16
2018-08-07T09:08:06.639Z,24.17
2018-08-07T09:09:07.225Z,24.10
2018-08-07T09:10:07.812Z,24.06
2018-08-07T09:11:08.391Z,24.08
2018-08-07T09:12:08.976Z,24.10
2018-08-07T09:13:09.566Z,24.11
2018-08-07T09:14:10.197Z,24.11
2018-08-07T09:15:10.833Z,24.14
2018-08-07T09:16:11.417Z,24.11
2018-08-07T09:17:12.008Z,24.11
2018-08-07T09:18:12.637Z,24.11
2018-08-07T09:19:13.320Z,24.20
2018-08-07T09:20:13.900Z,24.21
2018-08-07T09:21:14.483Z,24.14
2018-08-07T09:22:15.070Z,24.14
2018-08-07T09:23:15.656Z,24.08
2018-08-07T09:24:16.289Z,24.21
2018-08-07T09:25:16.894Z,24.10
2018-08-07T09:26:17.462Z,24.16
2018-08-07T09:27:18.048Z,24.14
2018-08-07T09:28:18.629Z,24.13
2018-08-07T09:29:19.220Z,24.11
2018-08-07T09:30:19.801Z,24.18
2018-08-07T09:31:20.435Z,24.10
2018-08-07T09:32:21.027Z,24.05
2018-08-07T09:33:21.606Z,24.03
2018-08-07T09:34:22.239Z,24.11
2018-08-07T09:35:22.822Z,24.03
2018-08-07T09:36:23.460Z,24.03
2018-08-07T09:37:24.046Z,24.03
2018-08-07T09:38:24.681Z,24.11
2018-08-07T09:39:25.288Z,24.03
2018-08-07T09:40:25.851Z,24.03
2018-08-07T09:41:26.434Z,24.01
2018-08-07T09:42:27.017Z,24.10
2018-08-07T09:43:27.606Z,24.10
2018-08-07T09:44:28.187Z,24.08
2018-08-07T09:45:28.769Z,24.05
2018-08-07T09:46:29.386Z,24.10
2018-08-07T09:47:29.940Z,24.11
2018-08-07T09:48:30.530Z,24.17
2018-08-07T09:49:31.159Z,24.14
2018-08-07T09:50:31.807Z,24.08
2018-08-07T09:51:32.387Z,24.05
2018-08-07T09:52:32.972Z,24.05
2018-08-07T09:53:33.605Z,24.06
2018-08-07T09:54:34.238Z,24.10
2018-08-07T09:55:34.832Z,24.11
2018-08-07T09:56:35.416Z,24.16
2018-08-07T09:57:36.003Z,24.06
2018-08-07T09:58:36.636Z,24.11
2018-08-07T09:59:37.225Z,24.21
2018-08-07T10:00:37.813Z,24.14
2018-08-07T10:01:38.401Z,24.10
2018-08-07T10:02:38.982Z,24.08
2018-08-07T10:03:39.572Z,24.14
2018-08-07T10:04:40.159Z,24.11
2018-08-07T10:05:40.740Z,24.17
2018-08-07T10:06:41.332Z,24.20
2018-08-07T10:07:41.916Z,24.23
2018-08-07T10:08:42.497Z,24.16
2018-08-07T10:09:43.087Z,24.23
2018-08-07T10:10:43.727Z,24.20
2018-08-07T10:11:44.361Z,24.26
2018-08-07T10:12:44.943Z,24.20
2018-08-07T10:13:45.590Z,24.23
2018-08-07T10:14:46.176Z,24.28
2018-08-07T10:15:46.757Z,24.28
2018-08-07T10:16:47.338Z,24.24
2018-08-07T10:17:47.952Z,24.26
2018-08-07T10:18:48.517Z,24.32
2018-08-07T10:19:49.098Z,24.29
2018-08-07T10:20:49.688Z,24.23
2018-08-07T10:21:50.271Z,24.35
2018-08-07T10:22:50.857Z,24.36
2018-08-07T10:23:51.442Z,24.36
2018-08-07T10:24:52.031Z,24.38
2018-08-07T10:25:52.618Z,24.42
2018-08-07T10:26:53.206Z,24.28
2018-08-07T10:27:53.794Z,24.39
2018-08-07T10:28:54.381Z,24.40
2018-08-07T10:29:55.019Z,24.40
2018-08-07T10:30:55.697Z,24.38
2018-08-07T10:31:56.284Z,24.42
2018-08-07T10:32:56.874Z,24.38
2018-08-07T10:33:57.452Z,24.47
2018-08-07T10:34:58.095Z,24.42
2018-08-07T10:35:58.635Z,24.42
2018-08-07T10:36:59.214Z,24.53
2018-08-07T10:37:59.855Z,24.47
2018-08-07T10:39:00.443Z,24.43
2018-08-07T10:40:01.031Z,24.42
2018-08-07T10:41:01.760Z,24.55
2018-08-07T10:42:02.202Z,24.51
2018-08-07T10:43:02.809Z,24.53
2018-08-07T10:44:03.428Z,24.55
2018-08-07T10:45:03.995Z,24.47
2018-08-07T10:46:04.636Z,24.48
2018-08-07T10:47:05.268Z,24.50
2018-08-07T10:48:05.900Z,24.53
2018-08-07T10:49:06.480Z,24.45
2018-08-07T10:50:07.065Z,24.55
2018-08-07T10:51:07.651Z,24.54
2018-08-07T10:52:08.243Z,24.54
2018-08-07T10:53:08.826Z,24.57
2018-08-07T10:54:09.415Z,24.48
2018-08-07T10:55:09.998Z,24.48
2018-08-07T10:56:10.585Z,24.53
2018-08-07T10:57:11.226Z,24.55
2018-08-07T10:58:11.827Z,24.61
2018-08-07T10:59:12.399Z,24.55
2018-08-07T11:00:12.989Z,24.60
2018-08-07T11:01:13.573Z,24.65
2018-08-07T11:02:14.164Z,24.63
2018-08-07T11:03:14.752Z,24.57
2018-08-07T11:04:15.339Z,24.63
2018-08-07T11:05:15.926Z,24.60
2018-08-07T11:06:16.560Z,24.63
2018-08-07T11:07:17.199Z,24.57
2018-08-07T11:08:17.787Z,24.60
2018-08-07T11:09:18.405Z,24.61
2018-08-07T11:10:19.004Z,24.65
2018-08-07T11:11:19.594Z,24.70
2018-08-07T11:12:20.181Z,24.74
2018-08-07T11:13:20.767Z,24.77
2018-08-07T11:14:21.357Z,24.76
2018-08-07T11:15:21.995Z,24.63
2018-08-07T11:16:22.582Z,24.69
2018-08-07T11:17:23.165Z,24.68
2018-08-07T11:18:23.755Z,24.74
2018-08-07T11:19:24.335Z,24.78
2018-08-07T11:20:24.927Z,24.76
2018-08-07T11:21:25.513Z,24.77
2018-08-07T11:22:26.112Z,24.76
2018-08-07T11:24:11.249Z,24.73
2018-08-07T11:25:11.883Z,24.78
2018-08-07T11:26:12.469Z,24.78
2018-08-07T11:27:13.063Z,24.74
2018-08-07T11:28:13.691Z,24.78
2018-08-07T11:29:14.284Z,24.76
2018-08-07T11:30:14.973Z,24.78
2018-08-07T11:31:15.563Z,24.88
2018-08-07T11:32:16.150Z,24.88
2018-08-07T11:33:16.833Z,24.89
2018-08-07T11:34:17.522Z,24.89
2018-08-07T11:35:18.106Z,24.81
2018-08-07T11:36:18.692Z,24.80
2018-08-07T11:37:19.280Z,24.85
2018-08-07T11:38:19.868Z,24.85
2018-08-07T11:39:20.459Z,24.85
2018-08-07T11:40:21.045Z,24.91
2018-08-07T11:41:21.639Z,24.92
2018-08-07T11:42:22.223Z,24.89
2018-08-07T11:43:22.844Z,24.93
2018-08-07T11:44:23.433Z,24.98
2018-08-07T11:45:24.019Z,24.93
2018-08-07T11:46:24.606Z,25.03
2018-08-07T11:47:25.238Z,24.96
2018-08-07T11:48:25.881Z,25.01
2018-08-07T11:49:26.511Z,24.98
2018-08-07T11:50:27.103Z,24.98
2018-08-07T11:51:27.739Z,24.99
2018-08-07T11:52:28.330Z,24.95
2018-08-07T11:53:28.919Z,25.04
2018-08-07T11:54:29.506Z,25.07
2018-08-07T11:55:30.097Z,25.10
2018-08-07T11:56:30.685Z,25.07
2018-08-07T11:57:31.273Z,25.08
2018-08-07T11:58:31.907Z,25.07
2018-08-07T11:59:32.495Z,25.07
2018-08-07T12:00:33.083Z,25.13
2018-08-07T12:01:33.672Z,25.11
2018-08-07T12:02:34.359Z,25.16
2018-08-07T12:03:34.886Z,25.17
2018-08-07T12:04:35.517Z,25.17
2018-08-07T12:05:36.109Z,25.17
2018-08-07T12:06:36.693Z,25.17
2018-08-07T12:07:37.285Z,25.08
2018-08-07T12:08:37.926Z,25.16
2018-08-07T12:09:38.556Z,25.21
2018-08-07T12:10:39.149Z,25.14
2018-08-07T12:11:39.735Z,25.21
2018-08-07T12:12:40.368Z,25.17
2018-08-07T12:13:40.955Z,25.25
2018-08-07T12:14:41.544Z,25.22
2018-08-07T12:15:42.182Z,25.22
2018-08-07T12:16:42.768Z,25.28
2018-08-07T12:17:43.360Z,25.23
2018-08-07T12:18:43.944Z,25.22
2018-08-07T12:19:44.533Z,25.22
2018-08-07T12:20:45.119Z,25.38
2018-08-07T12:21:45.825Z,25.35
2018-08-07T12:22:46.384Z,25.32
2018-08-07T12:23:46.971Z,25.31
2018-08-07T12:24:47.561Z,25.35
2018-08-07T12:25:48.192Z,25.43
2018-08-07T12:26:48.784Z,25.35
2018-08-07T12:27:49.486Z,25.33
2018-08-07T12:28:50.011Z,25.40
2018-08-07T12:29:50.595Z,25.35
2018-08-07T12:30:51.184Z,25.31
2018-08-07T12:31:51.770Z,25.38
2018-08-07T12:32:52.358Z,25.41
2018-08-07T12:33:52.948Z,25.40
2018-08-07T12:34:53.533Z,25.44
2018-08-07T12:35:54.121Z,25.43
2018-08-07T12:36:54.755Z,25.44
2018-08-07T12:37:55.346Z,25.47
2018-08-07T12:38:55.938Z,25.40
2018-08-07T12:39:56.523Z,25.40
2018-08-07T12:40:57.156Z,25.40
2018-08-07T12:41:57.743Z,25.43
2018-08-07T12:42:58.335Z,25.47
2018-08-07T12:43:58.971Z,25.43
2018-08-07T12:44:59.560Z,25.40
2018-08-07T12:46:00.145Z,25.41
2018-08-07T12:47:00.732Z,25.41
2018-08-07T12:48:01.321Z,25.46
2018-08-07T12:49:01.911Z,25.54
2018-08-07T12:50:02.498Z,25.48
2018-08-07T12:51:03.093Z,25.50
2018-08-07T12:52:03.681Z,25.50
2018-08-07T12:53:04.270Z,25.53
2018-08-07T12:54:04.853Z,25.51
2018-08-07T12:55:05.435Z,25.47
2018-08-07T12:56:06.076Z,25.47
2018-08-07T12:57:06.714Z,25.55
2018-08-07T12:58:07.303Z,25.55
2018-08-07T12:59:07.940Z,25.55
2018-08-07T13:00:08.571Z,25.58
2018-08-07T13:01:09.217Z,25.59
2018-08-07T13:02:09.749Z,25.68
2018-08-07T13:03:10.333Z,25.65